createdAt,value
2019-02-23T00:01:25.474Z,99.90
2019-02-23T00:06:29.035Z,99.90
2019-02-23T00:11:12.388Z,99.90
2019-02-23T00:16:06.547Z,99.90
2019-02-23T00:20:59.049Z,99.90
2019-02-23T00:25:51.782Z,99.90
2019-02-23T00:30:44.460Z,99.90
2019-02-23T00:35:36.862Z,99.90
2019-02-23T00:40:29.472Z,99.90
2019-02-23T00:45:22.122Z,99.90
2019-02-23T00:50:14.977Z,99.90
2019-02-23T00:55:08.272Z,99.90
2019-02-23T01:00:00.798Z,99.90
2019-02-23T01:04:53.591Z,99.90
2019-02-23T01:09:46.124Z,99.90
2019-02-23T01:14:38.408Z,99.90
2019-02-23T01:19:30.914Z,99.90
2019-02-23T01:24:23.576Z,99.90
2019-02-23T01:29:35.245Z,99.90
2019-02-23T01:34:27.739Z,99.90
2019-02-23T01:39:20.009Z,99.90
2019-02-23T01:44:12.745Z,99.90
2019-02-23T01:49:05.141Z,99.90
2019-02-23T01:53:57.845Z,99.90
2019-02-23T01:58:50.392Z,99.90
2019-02-23T02:03:42.929Z,99.90
2019-02-23T02:08:36.453Z,99.90
2019-02-23T02:13:29.145Z,99.90
2019-02-23T02:18:21.856Z,99.90
2019-02-23T02:23:14.386Z,99.90
2019-02-23T02:28:06.692Z,99.90
2019-02-23T02:32:59.128Z,99.90
2019-02-23T02:37:51.568Z,99.90
2019-02-23T02:42:44.062Z,99.90
2019-02-23T02:47:36.432Z,99.90
2019-02-23T02:52:29.106Z,99.90
2019-02-23T02:57:21.496Z,99.90
2019-02-23T03:02:14.090Z,99.90
2019-02-23T03:07:06.529Z,99.90
2019-02-23T03:11:59.357Z,99.90
2019-02-23T03:16:51.393Z,99.90
2019-02-23T03:21:44.162Z,99.90
2019-02-23T03:26:36.805Z,99.90
2019-02-23T03:31:29.410Z,99.90
2019-02-23T03:36:21.922Z,99.90
2019-02-23T03:41:14.168Z,99.90
2019-02-23T03:46:07.018Z,99.90
2019-02-23T03:50:59.725Z,99.90
2019-02-23T03:55:52.632Z,99.90
2019-02-23T04:00:45.180Z,99.90
2019-02-23T04:05:37.481Z,99.90
2019-02-23T04:10:30.058Z,99.90
2019-02-23T04:15:22.537Z,99.90
2019-02-23T04:20:15.171Z,99.90
2019-02-23T04:25:08.739Z,99.90
2019-02-23T04:30:01.267Z,99.90
2019-02-23T04:34:54.181Z,99.90
2019-02-23T04:39:46.702Z,99.90
2019-02-23T04:44:39.266Z,99.90
2019-02-23T04:49:31.412Z,99.90
2019-02-23T04:54:23.984Z,99.90
2019-02-23T04:59:16.545Z,99.90
2019-02-23T05:04:09.302Z,99.90
2019-02-23T05:09:01.923Z,99.90
2019-02-23T05:13:54.768Z,99.90
2019-02-23T05:18:47.086Z,99.90
2019-02-23T05:23:39.169Z,99.90
2019-02-23T05:28:31.757Z,99.90
2019-02-23T05:33:24.298Z,99.90
2019-02-23T05:38:16.755Z,99.90
2019-02-23T05:43:09.194Z,99.90
2019-02-23T05:48:01.862Z,99.90
2019-02-23T05:52:54.731Z,99.90
2019-02-23T05:57:46.794Z,99.90
2019-02-23T06:02:39.585Z,99.90
2019-02-23T06:07:32.045Z,99.90
2019-02-23T06:12:24.784Z,99.90
2019-02-23T06:17:17.553Z,99.90
2019-02-23T06:22:10.266Z,99.90
2019-02-23T06:27:03.104Z,99.90
2019-02-23T06:31:55.720Z,99.90
2019-02-23T06:36:48.564Z,99.90
2019-02-23T06:41:41.161Z,99.90
2019-02-23T06:46:34.266Z,99.90
2019-02-23T06:51:26.629Z,99.90
2019-02-23T06:56:19.185Z,99.90
2019-02-23T07:01:11.684Z,99.90
2019-02-23T07:06:04.088Z,99.90
2019-02-23T07:10:56.517Z,99.90
2019-02-23T07:15:48.865Z,99.90
2019-02-23T07:20:44.581Z,99.90
2019-02-23T07:25:35.360Z,99.90
2019-02-23T07:30:27.753Z,99.90
2019-02-23T07:35:20.410Z,99.90
2019-02-23T07:40:14.753Z,99.90
2019-02-23T07:45:09.149Z,99.90
2019-02-23T07:50:01.297Z,99.90
2019-02-23T07:54:53.861Z,99.90
2019-02-23T07:59:46.168Z,99.90
2019-02-23T08:04:38.577Z,99.90
2019-02-23T08:09:30.976Z,99.00
2019-02-23T08:14:23.665Z,99.60
2019-02-23T08:19:16.302Z,99.50
2019-02-23T08:24:08.800Z,96.20
2019-02-23T08:29:01.371Z,96.40
2019-02-23T08:33:53.724Z,91.70
2019-02-23T08:38:46.150Z,89.50
2019-02-23T08:43:38.488Z,86.70
2019-02-23T08:48:33.464Z,83.90
2019-02-23T08:53:25.960Z,81.30
2019-02-23T08:58:18.416Z,80.00
2019-02-23T09:03:11.304Z,78.30
2019-02-23T09:08:03.829Z,74.80
2019-02-23T09:12:56.416Z,71.90
2019-02-23T09:17:48.716Z,70.50
2019-02-23T09:22:41.326Z,69.50
2019-02-23T09:27:33.933Z,70.30
2019-02-23T09:32:26.953Z,71.60
2019-02-23T09:37:19.670Z,68.20
2019-02-23T09:42:12.348Z,62.30
2019-02-23T09:47:05.010Z,59.40
2019-02-23T09:51:57.449Z,59.80
2019-02-23T09:56:50.123Z,61.60
2019-02-23T10:01:42.297Z,59.90
2019-02-23T10:06:34.416Z,59.50
2019-02-23T10:11:27.084Z,60.10
2019-02-23T10:16:19.754Z,61.20
2019-02-23T10:21:12.444Z,60.70
2019-02-23T10:26:06.711Z,60.00
2019-02-23T10:31:02.360Z,60.70
2019-02-23T10:35:54.677Z,60.20
2019-02-23T10:40:46.947Z,57.50
2019-02-23T10:45:39.743Z,55.60
2019-02-23T10:50:32.153Z,55.70
2019-02-23T10:55:24.638Z,53.60
2019-02-23T11:00:21.931Z,52.90
2019-02-23T11:05:14.705Z,51.90
2019-02-23T11:10:08.569Z,50.80
2019-02-23T11:15:00.805Z,51.40
2019-02-23T11:19:53.369Z,51.10
2019-02-23T11:24:46.005Z,49.90
2019-02-23T11:29:38.574Z,50.30
2019-02-23T11:34:30.954Z,52.40
2019-02-23T11:39:23.617Z,52.20
2019-02-23T11:44:16.122Z,53.30
2019-02-23T11:49:09.072Z,54.10
2019-02-23T11:54:01.409Z,54.70
2019-02-23T11:58:54.121Z,54.50
2019-02-23T12:03:46.739Z,54.30
2019-02-23T12:08:39.086Z,51.20
2019-02-23T12:13:32.899Z,52.40
2019-02-23T12:18:25.024Z,50.50
2019-02-23T12:23:17.713Z,50.20
2019-02-23T12:28:10.220Z,49.90
2019-02-23T12:33:02.889Z,51.10
2019-02-23T12:37:55.813Z,52.60
2019-02-23T12:42:50.157Z,52.60
2019-02-23T12:47:42.886Z,53.60
2019-02-23T12:52:35.561Z,53.30
2019-02-23T12:57:28.333Z,53.30
2019-02-23T13:02:21.001Z,55.80
2019-02-23T13:07:13.452Z,56.00
2019-02-23T13:12:14.426Z,56.00
2019-02-23T13:17:15.703Z,55.60
2019-02-23T13:22:11.494Z,56.60
2019-02-23T13:27:07.024Z,56.60
2019-02-23T13:32:17.861Z,57.10
2019-02-23T13:37:13.265Z,59.10
2019-02-23T13:42:14.525Z,58.60
2019-02-23T13:47:13.017Z,57.30
2019-02-23T13:52:11.290Z,56.40
2019-02-23T13:57:21.726Z,57.50
2019-02-23T14:02:46.907Z,57.90
2019-02-23T14:07:47.901Z,58.40
2019-02-23T14:12:49.828Z,57.70
2019-02-23T14:17:56.957Z,56.20
2019-02-23T14:23:09.005Z,56.20
2019-02-23T14:28:10.094Z,56.20
2019-02-23T14:33:11.561Z,57.20
2019-02-23T14:38:15.744Z,55.70
2019-02-23T14:43:20.212Z,55.90
2019-02-23T14:48:41.137Z,55.30
2019-02-23T14:53:39.721Z,55.40
2019-02-23T14:58:44.370Z,55.90
2019-02-23T15:04:09.289Z,56.20
2019-02-23T15:09:19.909Z,54.50
2019-02-23T15:14:36.577Z,55.30
2019-02-23T15:19:49.664Z,55.40
2019-02-23T15:24:51.069Z,57.80
2019-02-23T15:29:55.731Z,58.00
2019-02-23T15:35:10.761Z,58.60
2019-02-23T15:40:29.983Z,58.80
2019-02-23T15:45:41.835Z,59.20
2019-02-23T15:50:34.223Z,59.10
2019-02-23T15:55:29.847Z,58.90
2019-02-23T16:00:21.281Z,58.90
2019-02-23T16:05:13.947Z,59.50
2019-02-23T16:10:06.776Z,59.90
2019-02-23T16:14:59.101Z,60.00
2019-02-23T16:19:51.529Z,60.50
2019-02-23T16:24:44.357Z,60.60
2019-02-23T16:29:38.877Z,61.10
2019-02-23T16:34:30.697Z,61.60
2019-02-23T16:39:23.421Z,62.40
2019-02-23T16:44:15.906Z,62.60
2019-02-23T16:49:09.251Z,63.40
2019-02-23T16:54:01.741Z,63.80
2019-02-23T16:58:54.269Z,64.40
2019-02-23T17:03:46.959Z,64.90
2019-02-23T17:08:39.421Z,66.00
2019-02-23T17:13:31.981Z,66.40
2019-02-23T17:18:24.701Z,67.40
2019-02-23T17:23:17.110Z,68.10
2019-02-23T17:28:09.694Z,69.10
2019-02-23T17:33:02.300Z,70.00
2019-02-23T17:37:55.027Z,70.80
2019-02-23T17:42:48.174Z,71.70
2019-02-23T17:47:40.772Z,73.00
2019-02-23T17:52:33.285Z,73.60
2019-02-23T17:57:25.485Z,74.00
2019-02-23T18:02:19.136Z,74.80
2019-02-23T18:07:11.414Z,75.40
2019-02-23T18:12:03.708Z,76.00
2019-02-23T18:16:56.146Z,77.10
2019-02-23T18:21:48.821Z,77.60
2019-02-23T18:26:41.372Z,77.60
2019-02-23T18:31:34.136Z,79.00
2019-02-23T18:36:26.865Z,78.90
2019-02-23T18:41:19.201Z,80.00
2019-02-23T18:46:11.585Z,80.50
2019-02-23T18:51:03.877Z,81.40
2019-02-23T18:55:56.314Z,82.20
2019-02-23T19:00:48.901Z,83.00
2019-02-23T19:05:49.565Z,84.00
2019-02-23T19:10:36.040Z,85.90
2019-02-23T19:15:29.457Z,87.10
2019-02-23T19:20:21.670Z,87.70
2019-02-23T19:25:13.913Z,88.20
2019-02-23T19:30:12.013Z,89.90
2019-02-23T19:35:05.946Z,90.80
2019-02-23T19:39:58.685Z,91.90
2019-02-23T19:44:51.308Z,92.90
2019-02-23T19:49:43.676Z,93.70
2019-02-23T19:54:35.744Z,95.10
2019-02-23T19:59:28.183Z,95.50
2019-02-23T20:04:20.680Z,96.10
2019-02-23T20:09:13.248Z,96.40
2019-02-23T20:14:05.629Z,97.20
2019-02-23T20:18:58.365Z,98.00
2019-02-23T20:23:50.638Z,99.00
2019-02-23T20:28:43.253Z,99.20
2019-02-23T20:33:36.046Z,99.40
2019-02-23T20:38:28.716Z,99.40
2019-02-23T20:43:20.963Z,99.90
2019-02-23T20:48:15.436Z,99.90
2019-02-23T20:53:07.985Z,99.90
2019-02-23T20:58:00.416Z,99.90
2019-02-23T21:02:53.180Z,99.90
2019-02-23T21:07:45.610Z,99.90
2019-02-23T21:12:38.467Z,99.90
2019-02-23T21:17:31.009Z,99.90
2019-02-23T21:22:23.677Z,99.90
2019-02-23T21:27:16.054Z,99.90
2019-02-23T21:32:08.320Z,99.90
2019-02-23T21:37:00.872Z,99.90
2019-02-23T21:41:53.506Z,99.90
2019-02-23T21:46:46.358Z,99.90
2019-02-23T21:51:38.881Z,99.90
2019-02-23T21:56:31.565Z,99.90
2019-02-23T22:01:24.370Z,99.90
2019-02-23T22:06:16.851Z,99.90
2019-02-23T22:11:09.509Z,99.90
2019-02-23T22:16:04.257Z,99.90
2019-02-23T22:20:56.292Z,99.90
2019-02-23T22:25:49.078Z,99.90
2019-02-23T22:30:41.760Z,99.90
2019-02-23T22:35:34.210Z,99.90
2019-02-23T22:40:26.981Z,99.90
2019-02-23T22:45:19.412Z,99.90
2019-02-23T22:50:13.208Z,99.90
2019-02-23T22:55:06.197Z,99.90
2019-02-23T22:59:58.585Z,99.90
2019-02-23T23:04:51.102Z,99.90
2019-02-23T23:09:43.444Z,99.90
2019-02-23T23:14:35.892Z,99.90
2019-02-23T23:19:28.165Z,99.90
2019-02-23T23:24:20.685Z,99.90
2019-02-23T23:29:13.054Z,99.90
2019-02-23T23:34:05.800Z,99.90
2019-02-23T23:38:58.179Z,99.90
2019-02-23T23:43:50.816Z,99.90
2019-02-23T23:48:43.425Z,99.90
2019-02-23T23:53:36.547Z,99.90
2019-02-23T23:58:29.189Z,99.90
